Time;durP1;ratioP1;P1;durP2;ratioP2;P2;SDS_P1;SDS_P2;PMS_P1;PMS_P2;Temp;Humidity;BMP_temperature;BMP_pressure;BME280_temperature;BME280_humidity;BME280_pressure;Samples;Min_cycle;Max_cycle;Signal;HPM_P1;HPM_P2
2024/01/15 04:02:42;;;;;;;13.75;1.73;;;2.50;99.90;;;;;;6275850;22;20077;-73
2024/01/15 04:05:07;;;;;;;15.45;2.95;;;2.50;99.90;;;;;;6251304;22;20012;-72
2024/01/15 04:07:33;;;;;;;18.65;1.95;;;2.60;99.90;;;;;;6251101;22;20065;-74
2024/01/15 04:09:59;;;;;;;15.10;2.58;;;2.60;99.90;;;;;;6251182;22;20011;-75
2024/01/15 04:12:25;;;;;;;11.77;1.77;;;2.60;99.90;;;;;;6250965;22;20015;-72
2024/01/15 04:14:50;;;;;;;16.45;2.05;;;2.60;99.90;;;;;;6251120;22;20310;-74
2024/01/15 04:17:16;;;;;;;15.02;2.97;;;2.60;99.90;;;;;;6278543;22;20098;-73
2024/01/15 04:19:44;;;;;;;15.95;1.98;;;2.60;99.90;;;;;;6278241;22;20386;-74
2024/01/15 04:22:09;;;;;;;17.83;2.30;;;2.60;99.90;;;;;;6250982;22;20368;-75
2024/01/15 04:24:35;;;;;;;13.70;2.03;;;2.60;99.90;;;;;;6251209;22;20095;-72
2024/01/15 04:27:01;;;;;;;15.40;2.47;;;2.70;99.90;;;;;;6225839;22;20015;-74
2024/01/15 04:29:26;;;;;;;15.20;1.85;;;2.70;99.90;;;;;;6251061;22;20105;-72
2024/01/15 04:31:53;;;;;;;19.25;1.90;;;2.60;99.90;;;;;;6251020;22;20012;-75
2024/01/15 04:34:18;;;;;;;13.30;1.83;;;2.60;99.90;;;;;;6251023;22;20015;-74
2024/01/15 04:36:44;;;;;;;14.55;1.77;;;2.60;99.90;;;;;;6250971;22;20012;-73
2024/01/15 04:39:11;;;;;;;15.65;1.40;;;2.50;99.90;;;;;;6250774;22;20015;-73
2024/01/15 04:41:37;;;;;;;13.73;1.98;;;2.50;99.90;;;;;;6278188;22;20352;-74
2024/01/15 04:44:03;;;;;;;15.57;2.72;;;2.50;99.90;;;;;;6278246;22;20065;-74
2024/01/15 04:46:28;;;;;;;10.07;1.35;;;2.50;99.90;;;;;;6250663;22;20008;-76
2024/01/15 04:48:54;;;;;;;10.30;1.35;;;2.50;99.90;;;;;;6250724;22;20108;-75
2024/01/15 04:51:20;;;;;;;15.13;1.48;;;2.50;99.90;;;;;;6278080;22;20007;-74
2024/01/15 04:53:45;;;;;;;7.63;1.33;;;2.40;99.90;;;;;;6278023;22;20091;-75
2024/01/15 04:56:11;;;;;;;26.95;3.20;;;2.40;99.90;;;;;;6278126;22;20043;-74
2024/01/15 04:58:36;;;;;;;12.38;1.75;;;2.40;99.90;;;;;;6250563;22;20046;-75
2024/01/15 05:01:02;;;;;;;9.50;1.50;;;2.30;99.90;;;;;;6250752;22;20014;-74
2024/01/15 05:03:29;;;;;;;12.02;1.48;;;2.30;99.90;;;;;;6250519;22;20018;-74
2024/01/15 05:05:55;;;;;;;8.90;1.15;;;2.20;99.90;;;;;;6250568;22;20015;-73
2024/01/15 05:08:21;;;;;;;7.85;1.00;;;2.20;99.90;;;;;;6250476;22;20110;-74
2024/01/15 05:10:47;;;;;;;9.15;1.63;;;2.20;99.90;;;;;;6250654;22;20012;-73
2024/01/15 05:13:13;;;;;;;8.98;1.55;;;2.20;99.90;;;;;;6277535;22;20022;-73
2024/01/15 05:15:39;;;;;;;9.35;1.55;;;2.10;99.90;;;;;;6250534;22;20015;-74
2024/01/15 05:18:05;;;;;;;13.13;1.27;;;2.20;99.90;;;;;;6277933;22;20422;-74
2024/01/15 05:20:30;;;;;;;10.25;1.80;;;2.20;99.90;;;;;;6250284;22;20015;-73
2024/01/15 05:22:56;;;;;;;7.95;1.45;;;2.20;99.90;;;;;;6250373;22;20033;-74
2024/01/15 05:25:22;;;;;;;10.05;1.27;;;2.20;99.90;;;;;;6277868;22;20303;-74
2024/01/15 05:27:48;;;;;;;15.68;2.28;;;2.20;99.90;;;;;;6250356;22;20014;-73
2024/01/15 05:30:14;;;;;;;9.63;1.30;;;2.10;99.90;;;;;;6250051;22;20404;-73
2024/01/15 05:32:40;;;;;;;9.18;2.50;;;2.10;99.90;;;;;;6277370;22;20437;-72
2024/01/15 05:35:05;;;;;;;4.43;0.98;;;2.10;99.90;;;;;;6250292;22;20020;-73
2024/01/15 05:37:31;;;;;;;15.93;1.63;;;2.00;99.90;;;;;;6250226;22;20015;-76
2024/01/15 05:39:57;;;;;;;8.20;1.25;;;1.90;99.90;;;;;;6277284;22;20015;-73
2024/01/15 05:42:22;;;;;;;7.75;1.55;;;1.90;99.90;;;;;;6277309;22;20014;-74
2024/01/15 05:44:48;;;;;;;12.45;2.08;;;1.80;99.90;;;;;;6277716;22;20324;-73
2024/01/15 05:47:14;;;;;;;12.60;2.08;;;1.80;99.90;;;;;;6249900;22;20091;-75
2024/01/15 05:49:39;;;;;;;8.75;1.33;;;1.80;99.90;;;;;;6250475;22;20464;-73
2024/01/15 05:52:05;;;;;;;10.82;1.92;;;1.70;99.90;;;;;;6250013;22;20027;-73
2024/01/15 05:54:30;;;;;;;14.32;1.85;;;1.70;99.90;;;;;;6250175;22;20031;-73
2024/01/15 05:56:56;;;;;;;14.85;1.83;;;1.70;99.90;;;;;;6250133;22;20020;-75
2024/01/15 05:59:22;;;;;;;8.73;1.55;;;1.70;99.90;;;;;;6250020;22;20015;-73
2024/01/15 06:01:47;;;;;;;12.75;1.80;;;1.80;99.90;;;;;;6249753;22;20019;-73
2024/01/15 06:04:13;;;;;;;12.43;2.08;;;1.80;99.90;;;;;;6277162;22;20008;-75
2024/01/15 06:06:39;;;;;;;13.38;1.83;;;1.80;99.90;;;;;;6249952;22;20007;-74
2024/01/15 06:09:07;;;;;;;17.58;2.35;;;1.80;99.90;;;;;;6250007;22;20497;-75
2024/01/15 06:11:32;;;;;;;19.15;2.08;;;1.80;99.90;;;;;;6276876;22;20448;-75
2024/01/15 06:14:00;;;;;;;20.42;2.13;;;1.70;99.90;;;;;;6249869;22;20016;-75
2024/01/15 06:16:26;;;;;;;19.02;2.33;;;1.80;99.90;;;;;;6249800;22;20016;-73
2024/01/15 06:18:52;;;;;;;13.93;2.00;;;1.70;99.90;;;;;;6276869;22;20011;-74
2024/01/15 06:21:17;;;;;;;12.25;1.40;;;1.70;99.90;;;;;;6277015;22;20083;-73
2024/01/15 06:23:43;;;;;;;12.10;1.95;;;1.70;99.90;;;;;;6249745;22;20065;-72
2024/01/15 06:26:11;;;;;;;15.43;2.08;;;1.60;99.90;;;;;;6276875;22;20121;-73
2024/01/15 06:28:36;;;;;;;13.25;1.60;;;1.60;99.90;;;;;;6277221;22;20012;-72
2024/01/15 06:31:02;;;;;;;13.20;2.30;;;1.60;99.90;;;;;;6250606;22;20012;-73
2024/01/15 06:33:28;;;;;;;13.57;1.92;;;1.50;99.90;;;;;;6250135;22;20337;-74
2024/01/15 06:35:54;;;;;;;15.55;1.98;;;1.50;99.90;;;;;;6277487;22;20012;-74
2024/01/15 06:38:20;;;;;;;16.38;2.30;;;1.50;99.90;;;;;;6249569;22;20011;-73
2024/01/15 06:40:47;;;;;;;17.50;1.98;;;1.50;99.90;;;;;;6276757;22;20042;-74
2024/01/15 06:43:13;;;;;;;21.20;2.10;;;1.50;99.90;;;;;;6249596;22;20011;-73
2024/01/15 06:45:38;;;;;;;13.45;1.83;;;1.50;99.90;;;;;;6249619;22;20125;-72
2024/01/15 06:48:05;;;;;;;15.77;2.75;;;1.60;99.90;;;;;;6276773;22;20026;-73
2024/01/15 06:50:30;;;;;;;20.13;1.83;;;1.60;99.90;;;;;;6249589;22;20445;-74
2024/01/15 06:52:56;;;;;;;15.90;1.67;;;1.80;99.90;;;;;;6276743;22;20065;-75
2024/01/15 06:55:21;;;;;;;13.43;2.30;;;1.80;99.90;;;;;;6276798;22;20012;-75
2024/01/15 06:57:47;;;;;;;13.25;1.95;;;1.80;99.90;;;;;;6249278;22;20020;-73
2024/01/15 07:00:13;;;;;;;15.85;2.10;;;1.80;99.90;;;;;;6276755;22;20044;-72
2024/01/15 07:02:39;;;;;;;14.85;1.52;;;1.70;99.90;;;;;;6276448;22;20117;-74
2024/01/15 07:05:05;;;;;;;14.73;2.75;;;1.70;99.90;;;;;;6249566;22;20438;-73
2024/01/15 07:07:31;;;;;;;14.13;1.70;;;1.70;99.90;;;;;;6249314;22;20437;-73
2024/01/15 07:09:56;;;;;;;11.70;1.55;;;1.80;99.90;;;;;;6249487;22;20012;-75
2024/01/15 07:12:25;;;;;;;13.85;1.75;;;1.70;99.90;;;;;;6276782;22;20077;-75
2024/01/15 07:14:50;;;;;;;18.88;2.47;;;1.70;99.90;;;;;;6249131;22;20012;-73
2024/01/15 07:17:16;;;;;;;17.55;1.98;;;1.70;99.90;;;;;;6249316;22;20047;-75
2024/01/15 07:19:41;;;;;;;9.68;2.17;;;1.60;99.90;;;;;;6249714;22;20022;-75
2024/01/15 07:22:07;;;;;;;15.68;2.08;;;1.60;99.90;;;;;;6249368;22;20437;-73
2024/01/15 07:24:35;;;;;;;15.70;1.95;;;1.60;99.90;;;;;;6276783;22;20093;-73
2024/01/15 07:27:01;;;;;;;15.27;1.85;;;1.60;99.90;;;;;;6276493;22;20445;-73
2024/01/15 07:29:26;;;;;;;15.32;2.58;;;1.50;99.90;;;;;;6277072;22;20046;-74
2024/01/15 07:31:53;;;;;;;16.33;2.10;;;1.60;99.90;;;;;;6249055;22;20024;-74
2024/01/15 07:34:18;;;;;;;14.77;2.05;;;1.50;99.90;;;;;;6276247;22;20445;-74
2024/01/15 07:36:45;;;;;;;9.48;1.70;;;1.50;99.90;;;;;;6249243;22;20015;-74
2024/01/15 07:39:11;;;;;;;11.40;1.90;;;1.50;99.90;;;;;;6249151;22;20020;-75
2024/01/15 07:41:37;;;;;;;13.80;1.85;;;1.50;99.90;;;;;;6249113;22;20015;-74
2024/01/15 07:44:03;;;;;;;15.45;2.03;;;1.50;99.90;;;;;;6249197;22;20012;-73
2024/01/15 07:46:28;;;;;;;12.15;2.40;;;1.50;99.90;;;;;;6276533;22;20003;-75
2024/01/15 07:48:57;;;;;;;18.55;1.83;;;1.50;99.90;;;;;;6276411;22;20003;-74
2024/01/15 07:51:24;;;;;;;11.55;2.17;;;1.40;99.90;;;;;;6223366;22;20050;-73
2024/01/15 07:53:53;;;;;;;11.35;1.73;;;1.40;99.90;;;;;;6276346;22;20008;-73
2024/01/15 07:56:19;;;;;;;9.25;1.92;;;1.40;99.90;;;;;;6249142;22;20018;-74
2024/01/15 07:58:44;;;;;;;12.20;1.80;;;1.50;99.90;;;;;;6276045;22;20008;-73
2024/01/15 08:01:10;;;;;;;12.30;1.42;;;1.50;99.90;;;;;;6223569;22;20012;-72
2024/01/15 08:03:36;;;;;;;12.80;2.13;;;1.50;99.90;;;;;;6249257;22;20077;-73
2024/01/15 08:06:02;;;;;;;17.70;2.72;;;1.50;99.90;;;;;;6250611;22;20019;-74
2024/01/15 08:08:27;;;;;;;16.17;2.13;;;1.50;99.90;;;;;;6250825;22;20065;-72
2024/01/15 08:10:53;;;;;;;19.23;1.95;;;1.50;99.90;;;;;;6250991;22;20011;-75
2024/01/15 08:13:19;;;;;;;11.25;2.55;;;1.60;99.90;;;;;;6278478;22;20011;-75
2024/01/15 08:15:45;;;;;;;14.52;1.92;;;1.60;99.90;;;;;;6277982;22;20015;-74
2024/01/15 08:18:12;;;;;;;11.35;2.17;;;1.60;99.90;;;;;;6278268;22;20048;-74
2024/01/15 08:20:38;;;;;;;16.30;2.42;;;1.60;99.90;;;;;;6277928;22;20008;-73
2024/01/15 08:23:04;;;;;;;8.93;2.22;;;1.60;99.90;;;;;;6250947;22;20087;-73
2024/01/15 08:25:29;;;;;;;13.75;2.30;;;1.70;99.90;;;;;;6277806;22;20433;-74
2024/01/15 08:27:57;;;;;;;12.43;1.80;;;1.70;99.90;;;;;;6251881;22;20088;-73
2024/01/15 08:30:27;;;;;;;15.10;1.98;;;1.70;99.90;;;;;;6250875;22;20341;-73
2024/01/15 08:32:56;;;;;;;15.30;2.33;;;1.80;99.90;;;;;;6278309;22;20391;-75
2024/01/15 08:35:22;;;;;;;9.35;1.90;;;1.80;99.90;;;;;;6250880;22;20037;-74
2024/01/15 08:38:11;;;;;;;9.88;1.80;;;1.80;99.90;;;;;;6250982;22;20022;-76
2024/01/15 08:40:37;;;;;;;17.10;2.03;;;1.70;99.90;;;;;;6246454;22;20026;-73
2024/01/15 08:43:03;;;;;;;17.67;1.80;;;1.70;99.90;;;;;;6250506;22;20332;-74
2024/01/15 08:45:28;;;;;;;10.57;1.60;;;1.70;99.90;;;;;;6277805;22;20065;-72
2024/01/15 08:47:54;;;;;;;20.23;2.35;;;1.60;99.90;;;;;;6225337;22;20027;-72
2024/01/15 08:50:20;;;;;;;12.88;1.88;;;1.60;99.90;;;;;;6277968;22;20039;-74
2024/01/15 08:52:46;;;;;;;24.30;3.17;;;1.70;99.90;;;;;;6278144;22;20318;-72
2024/01/15 08:55:13;;;;;;;16.13;2.35;;;1.70;99.90;;;;;;6278116;22;20041;-73
2024/01/15 08:57:38;;;;;;;12.85;2.05;;;1.80;99.90;;;;;;6250539;22;20026;-73
2024/01/15 09:00:08;;;;;;;9.65;1.58;;;2.10;99.90;;;;;;6251659;22;20077;-73
2024/01/15 09:02:34;;;;;;;8.63;2.30;;;2.40;99.90;;;;;;6250300;22;20047;-75
2024/01/15 09:05:00;;;;;;;11.80;1.73;;;2.40;99.90;;;;;;6277608;22;20138;-74
2024/01/15 09:07:26;;;;;;;10.60;1.63;;;2.50;99.90;;;;;;6277883;22;20046;-72
2024/01/15 09:09:52;;;;;;;11.15;1.92;;;2.40;99.90;;;;;;6277923;22;20011;-73
2024/01/15 09:12:20;;;;;;;12.85;2.03;;;2.20;99.90;;;;;;6250568;22;20012;-73
2024/01/15 09:14:46;;;;;;;11.95;1.73;;;2.10;99.90;;;;;;6250362;22;20022;-73
2024/01/15 09:17:12;;;;;;;11.52;1.75;;;2.00;99.90;;;;;;6249592;22;20023;-73
2024/01/15 09:19:39;;;;;;;15.23;2.25;;;1.90;99.90;;;;;;6250217;22;20016;-74
2024/01/15 09:22:05;;;;;;;19.38;2.28;;;1.80;99.90;;;;;;6277685;22;20012;-73
2024/01/15 09:24:31;;;;;;;12.85;1.63;;;1.80;99.90;;;;;;6250197;22;20039;-73
2024/01/15 09:26:56;;;;;;;9.95;1.83;;;1.80;99.90;;;;;;6250410;22;20007;-75
2024/01/15 09:29:23;;;;;;;13.40;2.33;;;1.80;99.90;;;;;;6250286;22;20495;-74
2024/01/15 09:31:50;;;;;;;17.10;2.53;;;1.80;99.90;;;;;;6277352;22;20015;-74
2024/01/15 09:34:16;;;;;;;16.73;1.92;;;1.90;99.90;;;;;;6250146;22;20451;-75
2024/01/15 09:36:42;;;;;;;16.05;2.33;;;2.00;99.90;;;;;;6250272;22;20011;-73
2024/01/15 09:39:09;;;;;;;14.85;1.95;;;2.00;99.90;;;;;;6250133;22;20050;-73
2024/01/15 09:41:38;;;;;;;7.70;1.23;;;2.10;99.90;;;;;;6250679;22;20389;-72
2024/01/15 09:44:04;;;;;;;13.18;1.88;;;2.10;99.90;;;;;;6250165;22;20492;-74
2024/01/15 09:46:31;;;;;;;7.13;1.52;;;2.20;99.90;;;;;;6250223;22;20004;-75
2024/01/15 09:48:58;;;;;;;9.73;1.25;;;2.20;99.90;;;;;;6250123;22;20008;-73
2024/01/15 09:51:24;;;;;;;15.40;1.70;;;2.30;99.90;;;;;;6277488;22;20082;-73
2024/01/15 09:53:51;;;;;;;5.72;0.90;;;2.30;99.90;;;;;;6249958;22;20012;-73
2024/01/15 09:56:17;;;;;;;6.07;1.13;;;2.20;99.90;;;;;;6250006;22;20012;-73
2024/01/15 09:58:44;;;;;;;9.23;1.02;;;2.20;99.90;;;;;;6224949;22;20023;-73
2024/01/15 10:01:10;;;;;;;8.45;1.15;;;2.20;99.90;;;;;;6249737;22;20008;-72
2024/01/15 10:03:37;;;;;;;8.65;1.30;;;2.10;99.90;;;;;;6250597;22;20094;-74
2024/01/15 10:06:04;;;;;;;11.32;1.73;;;2.10;99.90;;;;;;6277073;22;20429;-72
2024/01/15 10:08:30;;;;;;;7.93;1.67;;;2.10;99.90;;;;;;6249835;22;20070;-75
2024/01/15 10:10:55;;;;;;;10.63;1.67;;;2.10;99.90;;;;;;6249733;22;20020;-74
2024/01/15 10:13:22;;;;;;;7.50;1.40;;;2.10;99.90;;;;;;6249934;22;20015;-73
2024/01/15 10:15:47;;;;;;;8.00;1.83;;;2.20;99.90;;;;;;6277350;22;20014;-74
2024/01/15 10:18:13;;;;;;;15.55;3.35;;;2.30;99.90;;;;;;6249827;22;20094;-74
2024/01/15 10:20:40;;;;;;;11.85;2.15;;;2.40;99.90;;;;;;6249626;22;20015;-73
2024/01/15 10:23:05;;;;;;;10.82;1.38;;;2.60;99.90;;;;;;6277362;22;20014;-74
2024/01/15 10:25:31;;;;;;;8.68;1.50;;;2.70;99.90;;;;;;6277287;22;20039;-74
2024/01/15 10:28:01;;;;;;;5.28;0.82;;;2.90;99.90;;;;;;6249683;22;20341;-73
2024/01/15 10:30:27;;;;;;;12.05;1.67;;;3.00;99.90;;;;;;6249604;22;20053;-71
2024/01/15 10:33:03;;;;;;;5.70;1.20;;;3.00;99.90;;;;;;6279322;22;20007;-74
2024/01/15 10:35:31;;;;;;;8.68;1.08;;;3.00;99.90;;;;;;6279344;22;20057;-73
2024/01/15 10:37:56;;;;;;;8.05;1.02;;;2.90;99.90;;;;;;6249844;22;20023;-73
2024/01/15 10:40:22;;;;;;;8.23;1.73;;;2.90;99.90;;;;;;6249752;22;20345;-73
2024/01/15 10:42:48;;;;;;;5.15;1.20;;;2.90;99.90;;;;;;6249790;22;20007;-74
2024/01/15 10:45:14;;;;;;;4.68;0.82;;;2.90;99.90;;;;;;6277034;22;20333;-76
2024/01/15 10:47:41;;;;;;;1.85;0.60;;;2.90;99.90;;;;;;6276886;22;20391;-74
2024/01/15 10:50:08;;;;;;;1.58;0.43;;;2.90;99.90;;;;;;6249650;22;20016;-74
2024/01/15 10:52:37;;;;;;;2.03;0.45;;;2.80;99.90;;;;;;6276557;22;20421;-74
2024/01/15 10:55:05;;;;;;;1.75;0.28;;;2.80;99.90;;;;;;6276707;22;20074;-76
2024/01/15 10:57:30;;;;;;;1.58;0.30;;;2.70;99.90;;;;;;6276982;22;20023;-73
2024/01/15 10:59:56;;;;;;;2.25;0.40;;;2.60;99.90;;;;;;6249438;22;20020;-76
2024/01/15 11:02:25;;;;;;;1.85;0.30;;;2.50;99.90;;;;;;6249151;22;20018;-74
2024/01/15 11:04:51;;;;;;;3.05;0.40;;;2.40;99.90;;;;;;6276632;22;20012;-74
2024/01/15 11:07:18;;;;;;;3.20;0.52;;;2.40;99.90;;;;;;6276642;22;20010;-75
2024/01/15 11:09:46;;;;;;;2.20;0.43;;;2.40;99.90;;;;;;6249492;22;20011;-75
2024/01/15 11:12:13;;;;;;;3.08;0.52;;;2.40;99.90;;;;;;6276738;22;20043;-73
2024/01/15 11:14:51;;;;;;;1.65;0.50;;;2.40;99.90;;;;;;6249504;22;20019;-73
2024/01/15 11:17:18;;;;;;;4.18;0.60;;;2.40;99.90;;;;;;6276463;22;20016;-72
2024/01/15 11:19:52;;;;;;;2.63;0.50;;;2.40;99.90;;;;;;6276577;22;20012;-73
2024/01/15 11:22:30;;;;;;;4.30;1.00;;;2.40;99.90;;;;;;6249647;22;20011;-76
2024/01/15 11:25:15;;;;;;;3.50;0.70;;;2.50;99.90;;;;;;6249434;22;20020;-74
2024/01/15 11:27:44;;;;;;;5.53;0.80;;;2.70;99.90;;;;;;6276551;22;20012;-72
2024/01/15 11:30:11;;;;;;;6.18;0.65;;;2.80;99.90;;;;;;6249353;22;20022;-74
2024/01/15 11:32:41;;;;;;;8.80;0.88;;;2.80;99.90;;;;;;6249591;22;20078;-73
2024/01/15 11:35:08;;;;;;;8.02;0.95;;;2.80;99.90;;;;;;6249393;22;20019;-72
2024/01/15 11:37:54;;;;;;;9.05;0.95;;;2.80;99.90;;;;;;6249060;22;20108;-75
2024/01/15 11:40:37;;;;;;;5.20;1.10;;;2.70;99.90;;;;;;6224840;22;20016;-75
2024/01/15 11:43:04;;;;;;;10.98;2.20;;;2.70;99.90;;;;;;6278555;22;20069;-74
2024/01/15 11:45:31;;;;;;;8.15;1.17;;;2.70;99.90;;;;;;6251187;22;20015;-73
2024/01/15 11:48:13;;;;;;;11.00;1.75;;;2.70;99.90;;;;;;6250888;22;20007;-73
2024/01/15 11:50:49;;;;;;;10.20;1.65;;;2.80;99.90;;;;;;6278415;22;20035;-75
2024/01/15 11:53:28;;;;;;;10.50;1.30;;;2.80;99.90;;;;;;6251133;22;20020;-73
2024/01/15 11:56:01;;;;;;;8.05;1.35;;;2.80;99.90;;;;;;6278348;22;20016;-81
2024/01/15 11:58:27;;;;;;;4.07;0.63;;;2.60;99.90;;;;;;6251181;22;20094;-76
2024/01/15 12:00:54;;;;;;;3.95;1.00;;;2.40;99.90;;;;;;6278195;22;20015;-76
2024/01/15 12:03:24;;;;;;;4.55;1.05;;;2.20;99.90;;;;;;6278488;22;20003;-75
2024/01/15 12:05:52;;;;;;;6.50;0.77;;;1.90;99.90;;;;;;6278151;22;20014;-78
2024/01/15 12:08:25;;;;;;;4.10;0.70;;;1.70;99.90;;;;;;6278877;22;20334;-75
2024/01/15 12:10:51;;;;;;;8.68;1.13;;;1.60;99.90;;;;;;6251044;22;20015;-77
2024/01/15 12:13:17;;;;;;;3.35;0.80;;;1.40;99.90;;;;;;6250663;22;20033;-76
2024/01/15 12:15:45;;;;;;;6.93;0.75;;;1.40;99.90;;;;;;6251971;22;20429;-77
2024/01/15 12:18:14;;;;;;;6.93;0.47;;;1.40;99.90;;;;;;6250870;22;20045;-74
2024/01/15 12:20:40;;;;;;;6.45;0.70;;;1.40;99.90;;;;;;6250742;22;20018;-76
2024/01/15 12:23:06;;;;;;;5.28;0.73;;;1.40;99.90;;;;;;6278329;22;20011;-77
2024/01/15 12:25:32;;;;;;;4.10;0.73;;;1.50;99.90;;;;;;6251012;22;20114;-75
2024/01/15 12:28:00;;;;;;;5.25;0.98;;;1.50;99.90;;;;;;6278368;22;20058;-75
2024/01/15 12:30:31;;;;;;;4.07;0.93;;;1.50;99.90;;;;;;6250523;22;20437;-77
2024/01/15 12:32:57;;;;;;;7.93;1.10;;;1.60;99.90;;;;;;6250954;22;20047;-74
2024/01/15 12:35:24;;;;;;;7.95;1.27;;;1.60;99.90;;;;;;6278144;22;20049;-75
2024/01/15 12:37:49;;;;;;;5.60;1.20;;;1.70;99.90;;;;;;6251065;22;20019;-75
2024/01/15 12:40:19;;;;;;;8.05;1.45;;;1.90;99.90;;;;;;6277022;22;20016;-73
2024/01/15 12:42:45;;;;;;;5.78;1.15;;;2.20;99.90;;;;;;6277828;22;20008;-74
2024/01/15 12:45:12;;;;;;;5.15;1.10;;;2.20;99.90;;;;;;6250709;22;20315;-75
2024/01/15 12:47:39;;;;;;;6.80;1.35;;;2.30;99.90;;;;;;6277570;22;20035;-74
2024/01/15 12:50:09;;;;;;;2.38;0.82;;;2.30;99.90;;;;;;6225460;22;20395;-74
2024/01/15 12:52:37;;;;;;;9.50;1.35;;;2.40;99.90;;;;;;6277326;22;20018;-74
2024/01/15 12:55:07;;;;;;;7.35;1.42;;;2.40;99.90;;;;;;6250598;22;20027;-71
2024/01/15 12:57:34;;;;;;;6.32;1.20;;;2.50;99.90;;;;;;6250603;22;20348;-75
2024/01/15 12:59:59;;;;;;;8.90;1.38;;;2.60;99.90;;;;;;6225067;22;20512;-73
2024/01/15 13:02:25;;;;;;;7.63;1.50;;;2.80;99.90;;;;;;6250355;22;20053;-72
2024/01/15 13:04:51;;;;;;;9.25;1.98;;;3.00;99.90;;;;;;6278153;22;20004;-75
2024/01/15 13:07:17;;;;;;;6.18;1.50;;;3.10;99.90;;;;;;6277389;22;20012;-74
2024/01/15 13:09:43;;;;;;;7.43;1.42;;;3.00;99.90;;;;;;6250377;22;20087;-75
2024/01/15 13:12:08;;;;;;;8.60;3.22;;;2.90;99.90;;;;;;6277602;22;20016;-73
2024/01/15 13:14:35;;;;;;;16.75;2.70;;;2.90;99.90;;;;;;6250214;22;20061;-75
2024/01/15 13:17:00;;;;;;;15.40;3.90;;;2.80;99.90;;;;;;6277680;22;20011;-72
2024/01/15 13:19:27;;;;;;;15.90;3.63;;;2.80;99.90;;;;;;6277057;22;20444;-73
2024/01/15 13:21:53;;;;;;;14.07;4.35;;;2.80;99.90;;;;;;6249909;22;20046;-74
2024/01/15 13:24:19;;;;;;;12.02;2.85;;;2.70;99.90;;;;;;6250091;22;20090;-75
2024/01/15 13:26:45;;;;;;;8.35;1.63;;;2.70;99.90;;;;;;6250327;22;20579;-73
2024/01/15 13:29:11;;;;;;;9.23;1.98;;;2.70;99.90;;;;;;6277784;22;20087;-73
2024/01/15 13:31:36;;;;;;;15.23;2.13;;;2.60;99.90;;;;;;6224763;22;20054;-72
2024/01/15 13:34:03;;;;;;;9.55;1.35;;;2.60;99.90;;;;;;6277407;22;20061;-74
2024/01/15 13:36:28;;;;;;;11.93;1.52;;;2.50;99.90;;;;;;6276415;22;20019;-75
2024/01/15 13:38:54;;;;;;;8.95;1.35;;;2.60;99.90;;;;;;6250158;22;20011;-73
2024/01/15 13:41:27;;;;;;;5.75;1.50;;;2.90;99.90;;;;;;6276555;22;20004;-73
2024/01/15 13:43:54;;;;;;;13.05;1.85;;;3.20;99.90;;;;;;6250258;22;20026;-72
2024/01/15 13:46:21;;;;;;;17.25;2.13;;;3.40;99.90;;;;;;6250051;22;20023;-74
2024/01/15 13:48:47;;;;;;;10.00;2.05;;;3.50;99.90;;;;;;6224359;22;20008;-74
2024/01/15 13:51:13;;;;;;;10.55;2.10;;;3.70;99.90;;;;;;6249878;22;20066;-74
2024/01/15 13:53:39;;;;;;;11.27;1.75;;;3.90;99.90;;;;;;6277078;22;20019;-73
2024/01/15 13:56:05;;;;;;;7.25;1.60;;;4.10;99.90;;;;;;6224913;22;20095;-73
2024/01/15 13:58:32;;;;;;;20.20;2.88;;;4.30;99.90;;;;;;6249899;22;20016;-73
2024/01/15 14:00:58;;;;;;;9.93;2.13;;;4.50;99.90;;;;;;6276762;22;20012;-71
2024/01/15 14:03:25;;;;;;;10.80;1.90;;;4.60;99.90;;;;;;6276969;22;20089;-73
2024/01/15 14:05:51;;;;;;;15.57;3.65;;;4.60;99.90;;;;;;6249835;22;20018;-74
2024/01/15 14:08:17;;;;;;;13.90;1.60;;;4.60;99.90;;;;;;6277693;22;20350;-73
2024/01/15 14:10:43;;;;;;;11.57;1.70;;;4.70;99.90;;;;;;6249696;22;20047;-74
2024/01/15 14:13:08;;;;;;;12.50;2.38;;;4.70;99.90;;;;;;6277313;22;20015;-74
2024/01/15 14:15:35;;;;;;;11.45;2.33;;;4.80;99.90;;;;;;6249628;22;20023;-72
2024/01/15 14:18:01;;;;;;;10.68;2.40;;;4.70;99.90;;;;;;6277305;22;20333;-73
2024/01/15 14:20:27;;;;;;;13.45;2.20;;;4.50;99.90;;;;;;6249489;22;20026;-72
2024/01/15 14:22:53;;;;;;;14.50;1.85;;;4.20;99.90;;;;;;6249347;22;20453;-73
2024/01/15 14:25:20;;;;;;;9.45;1.98;;;4.10;99.90;;;;;;6276628;22;20008;-75
2024/01/15 14:27:46;;;;;;;11.18;1.73;;;3.90;99.90;;;;;;6249785;22;20015;-74
2024/01/15 14:30:12;;;;;;;9.40;1.67;;;3.90;99.90;;;;;;6277178;22;20376;-73
2024/01/15 14:32:39;;;;;;;4.70;1.13;;;4.00;99.90;;;;;;6249452;22;20377;-74
2024/01/15 14:35:05;;;;;;;10.52;1.67;;;4.00;99.90;;;;;;6249533;22;20016;-73
2024/01/15 14:37:31;;;;;;;8.43;1.20;;;4.10;99.90;;;;;;6249616;22;20019;-72
2024/01/15 14:39:57;;;;;;;7.80;1.83;;;4.00;99.90;;;;;;6249509;22;20042;-72
2024/01/15 14:42:24;;;;;;;7.20;1.60;;;4.00;99.90;;;;;;6250286;22;20430;-73
2024/01/15 14:44:50;;;;;;;8.98;1.50;;;3.90;99.90;;;;;;6249309;22;20087;-74
2024/01/15 14:47:15;;;;;;;8.93;1.90;;;3.70;99.90;;;;;;6224350;22;20054;-74
2024/01/15 14:49:41;;;;;;;11.95;1.33;;;3.50;99.90;;;;;;6249799;22;20022;-75
2024/01/15 14:52:07;;;;;;;4.45;0.90;;;3.20;99.90;;;;;;6248789;22;20065;-73
2024/01/15 14:54:34;;;;;;;6.40;1.35;;;3.10;99.90;;;;;;6250023;22;20020;-76
2024/01/15 14:57:00;;;;;;;9.95;1.42;;;2.90;99.90;;;;;;6249561;22;20342;-74
2024/01/15 14:59:28;;;;;;;7.88;1.13;;;2.80;99.90;;;;;;6249444;22;20039;-74
2024/01/15 15:01:54;;;;;;;7.00;1.33;;;2.70;99.90;;;;;;6276350;22;20011;-75
2024/01/15 15:04:20;;;;;;;7.03;2.05;;;2.60;99.90;;;;;;6276811;22;20004;-72
2024/01/15 15:06:45;;;;;;;7.00;1.23;;;2.50;99.90;;;;;;6224176;22;20061;-75
2024/01/15 15:09:11;;;;;;;11.55;1.65;;;2.40;99.90;;;;;;6249170;22;20008;-73
2024/01/15 15:11:37;;;;;;;5.63;1.10;;;2.30;99.90;;;;;;6249217;22;20375;-73
2024/01/15 15:14:04;;;;;;;8.35;1.63;;;2.30;99.90;;;;;;6276584;22;20064;-73
2024/01/15 15:16:30;;;;;;;5.35;0.90;;;2.30;99.90;;;;;;6249315;22;20040;-75
2024/01/15 15:18:56;;;;;;;6.60;1.48;;;2.30;99.90;;;;;;6249215;22;20437;-73
2024/01/15 15:21:21;;;;;;;11.27;1.90;;;2.20;99.90;;;;;;6276335;22;20011;-75
2024/01/15 15:23:47;;;;;;;10.82;1.60;;;2.20;99.90;;;;;;6249458;22;20429;-75
2024/01/15 15:26:13;;;;;;;7.32;2.05;;;2.10;99.90;;;;;;6223771;22;20018;-73
2024/01/15 15:28:39;;;;;;;12.20;1.80;;;2.00;99.90;;;;;;6276095;22;20004;-71
2024/01/15 15:31:08;;;;;;;10.73;2.15;;;2.00;99.90;;;;;;6249276;22;20069;-74
2024/01/15 15:33:34;;;;;;;12.70;1.90;;;2.00;99.90;;;;;;6249392;22;20023;-75
2024/01/15 15:36:04;;;;;;;7.03;1.90;;;2.00;99.90;;;;;;6276210;22;20091;-74
2024/01/15 15:38:30;;;;;;;11.23;2.47;;;2.00;99.90;;;;;;6249200;22;20015;-75
2024/01/15 15:40:56;;;;;;;8.15;1.60;;;2.10;99.90;;;;;;6248964;22;20095;-73
2024/01/15 15:43:23;;;;;;;6.93;1.60;;;2.10;99.90;;;;;;6249400;22;20042;-74
2024/01/15 15:45:49;;;;;;;6.65;1.35;;;2.10;99.90;;;;;;6277647;22;20012;-76
2024/01/15 15:48:14;;;;;;;4.85;1.20;;;2.20;99.90;;;;;;6276383;22;20011;-76
2024/01/15 15:50:40;;;;;;;5.63;1.30;;;2.10;99.90;;;;;;6249383;22;20051;-74
2024/01/15 15:53:06;;;;;;;6.75;1.98;;;2.10;99.90;;;;;;6276462;22;20345;-73
2024/01/15 15:55:31;;;;;;;5.53;1.83;;;2.00;99.90;;;;;;6249293;22;20022;-74
2024/01/15 15:57:57;;;;;;;6.07;1.23;;;2.00;99.90;;;;;;6275526;22;20115;-77
2024/01/15 16:00:23;;;;;;;7.32;1.10;;;2.00;99.90;;;;;;6249101;22;20090;-74
2024/01/15 16:02:48;;;;;;;6.38;1.08;;;1.90;99.90;;;;;;6249042;22;20018;-74
2024/01/15 16:05:14;;;;;;;6.80;1.40;;;2.00;99.90;;;;;;6249584;22;20460;-76
2024/01/15 16:07:40;;;;;;;9.93;1.60;;;1.90;99.90;;;;;;6249334;22;20077;-75
2024/01/15 16:10:06;;;;;;;7.68;1.50;;;1.90;99.90;;;;;;6249209;22;20016;-74
2024/01/15 16:12:31;;;;;;;7.30;1.90;;;1.90;99.90;;;;;;6249060;22;20329;-76
2024/01/15 16:15:00;;;;;;;4.40;1.13;;;1.90;99.90;;;;;;6249276;22;20019;-74
2024/01/15 16:17:26;;;;;;;7.07;1.00;;;1.90;99.90;;;;;;6248952;22;20384;-75
2024/01/15 16:19:51;;;;;;;4.50;1.08;;;1.80;99.90;;;;;;6248749;22;20026;-74
2024/01/15 16:22:17;;;;;;;2.53;0.52;;;1.70;99.90;;;;;;6248814;22;20012;-76
2024/01/15 16:24:43;;;;;;;4.55;1.10;;;1.70;99.90;;;;;;6249220;22;20337;-73
2024/01/15 16:27:08;;;;;;;8.75;1.00;;;1.70;99.90;;;;;;6225319;22;20008;-75
2024/01/15 16:29:34;;;;;;;3.80;0.80;;;1.70;99.90;;;;;;6277960;22;20042;-77
2024/01/15 16:31:59;;;;;;;4.32;0.63;;;1.70;99.90;;;;;;6278358;22;20023;-75
2024/01/15 16:34:25;;;;;;;2.70;0.80;;;1.60;99.90;;;;;;6251451;22;20012;-75
2024/01/15 16:36:51;;;;;;;6.25;0.80;;;1.60;99.90;;;;;;6278387;22;20019;-75
2024/01/15 16:39:16;;;;;;;3.90;0.80;;;1.60;99.90;;;;;;6251214;22;20012;-75
2024/01/15 16:41:42;;;;;;;6.20;0.73;;;1.60;99.90;;;;;;6251057;22;20447;-75
2024/01/15 16:44:07;;;;;;;3.42;1.10;;;1.60;99.90;;;;;;6250891;22;20008;-73
2024/01/15 16:46:33;;;;;;;3.55;1.20;;;1.50;99.90;;;;;;6251079;22;20346;-74
2024/01/15 16:49:01;;;;;;;7.07;1.17;;;1.50;99.90;;;;;;6225655;22;20011;-73
2024/01/15 16:51:27;;;;;;;1.92;0.70;;;1.50;99.90;;;;;;6250663;22;20082;-76